createdAt,value
2023-03-30T00:01:01.170Z,24.53
2023-03-30T00:03:28.623Z,22.67
2023-03-30T00:05:57.022Z,24.67
2023-03-30T00:08:29.880Z,25.77
2023-03-30T00:11:07.026Z,25.07
2023-03-30T00:13:36.042Z,24.87
2023-03-30T00:16:03.561Z,26.80
2023-03-30T00:18:30.148Z,26.07
2023-03-30T00:20:58.548Z,26.47
2023-03-30T00:23:26.303Z,24.80
2023-03-30T00:25:52.936Z,25.13
2023-03-30T00:28:19.546Z,24.10
2023-03-30T00:30:48.115Z,25.80
2023-03-30T00:33:14.769Z,25.77
2023-03-30T00:35:41.678Z,24.23
2023-03-30T00:38:08.528Z,24.37
2023-03-30T00:40:36.796Z,23.60
2023-03-30T00:43:07.637Z,25.07
2023-03-30T00:45:36.510Z,24.33
2023-03-30T00:48:17.915Z,26.93
2023-03-30T00:50:59.435Z,26.23
2023-03-30T00:53:35.383Z,26.43
2023-03-30T00:56:05.005Z,32.80
2023-03-30T00:58:32.228Z,28.37
2023-03-30T01:01:02.098Z,26.53
2023-03-30T01:03:32.649Z,24.33
2023-03-30T01:06:02.695Z,25.20
2023-03-30T01:08:32.709Z,25.77
2023-03-30T01:11:01.860Z,27.30
2023-03-30T01:13:30.949Z,25.03
2023-03-30T01:16:05.580Z,24.87
2023-03-30T01:18:49.816Z,24.73
2023-03-30T01:21:31.319Z,24.77
2023-03-30T01:24:16.088Z,24.20
2023-03-30T01:26:48.668Z,26.13
2023-03-30T01:29:52.936Z,24.30
2023-03-30T01:32:38.312Z,27.77
2023-03-30T01:35:42.353Z,25.47
2023-03-30T01:38:30.220Z,23.80
2023-03-30T01:41:12.769Z,26.40
2023-03-30T01:43:45.446Z,24.67
2023-03-30T01:46:32.903Z,30.60
2023-03-30T01:49:16.230Z,24.40
2023-03-30T01:51:49.647Z,27.70
2023-03-30T01:54:27.065Z,27.10
2023-03-30T01:57:00.773Z,29.37
2023-03-30T01:59:32.763Z,29.00
2023-03-30T02:02:04.378Z,30.93
2023-03-30T02:04:36.337Z,25.37
2023-03-30T02:07:13.964Z,39.33
2023-03-30T02:09:42.310Z,28.20
2023-03-30T02:12:11.227Z,29.03
2023-03-30T02:14:41.171Z,29.10
2023-03-30T02:17:17.398Z,31.20
2023-03-30T02:19:47.629Z,25.20
2023-03-30T02:22:16.422Z,26.50
2023-03-30T02:24:45.449Z,26.23
2023-03-30T02:27:13.161Z,29.00
2023-03-30T02:29:43.523Z,28.07
2023-03-30T02:32:45.764Z,27.97
2023-03-30T02:35:37.752Z,27.83
2023-03-30T02:38:25.016Z,32.53
2023-03-30T02:40:51.918Z,26.73
2023-03-30T02:43:44.740Z,27.87
2023-03-30T02:46:17.752Z,33.20
2023-03-30T02:49:17.282Z,28.87
2023-03-30T02:51:55.421Z,28.97
2023-03-30T02:54:47.667Z,31.50
2023-03-30T02:57:20.354Z,28.17
2023-03-30T02:59:56.207Z,28.77
2023-03-30T03:02:30.570Z,31.13
2023-03-30T03:04:57.758Z,27.97
2023-03-30T03:07:25.754Z,31.10
2023-03-30T03:09:52.444Z,27.23
2023-03-30T03:12:19.016Z,26.70
2023-03-30T03:14:45.625Z,30.53
2023-03-30T03:17:13.860Z,28.60
2023-03-30T03:19:40.570Z,28.77
2023-03-30T03:22:07.098Z,28.23
2023-03-30T03:24:34.120Z,23.87
2023-03-30T03:27:01.179Z,28.97
2023-03-30T03:29:27.823Z,26.37
2023-03-30T03:31:54.647Z,32.83
2023-03-30T03:34:21.376Z,30.20
2023-03-30T03:36:52.374Z,27.73
2023-03-30T03:39:19.456Z,27.73
2023-03-30T03:41:46.130Z,29.00
2023-03-30T03:44:12.803Z,28.07
2023-03-30T03:46:39.466Z,30.13
2023-03-30T03:49:06.165Z,29.27
2023-03-30T03:51:33.949Z,33.17
2023-03-30T03:54:00.862Z,31.03
2023-03-30T03:56:27.692Z,28.63
2023-03-30T03:58:54.305Z,29.40
2023-03-30T04:01:20.880Z,28.87
2023-03-30T04:03:47.499Z,28.87
2023-03-30T04:06:14.102Z,31.40
2023-03-30T04:08:40.693Z,31.00
2023-03-30T04:11:10.182Z,32.43
2023-03-30T04:13:36.764Z,28.93
2023-03-30T04:16:03.823Z,24.73
2023-03-30T04:18:33.931Z,26.27
2023-03-30T04:21:05.846Z,30.13
2023-03-30T04:23:36.324Z,29.13
2023-03-30T04:26:05.370Z,27.33
2023-03-30T04:28:33.157Z,27.80
2023-03-30T04:31:01.934Z,26.80
2023-03-30T04:33:29.318Z,29.23
2023-03-30T04:35:56.701Z,28.60
2023-03-30T04:38:23.433Z,26.63
2023-03-30T04:40:51.787Z,33.60
2023-03-30T04:43:22.751Z,26.13
2023-03-30T04:45:50.954Z,25.20
2023-03-30T04:48:18.711Z,24.97
2023-03-30T04:50:47.084Z,26.93
2023-03-30T04:53:15.355Z,29.13
2023-03-30T04:55:42.722Z,25.57
2023-03-30T04:58:12.307Z,29.93
2023-03-30T05:00:41.948Z,25.43
2023-03-30T05:03:08.772Z,26.60
2023-03-30T05:05:35.385Z,26.53
2023-03-30T05:08:01.992Z,26.30
2023-03-30T05:10:28.778Z,31.17
2023-03-30T05:12:56.212Z,21.00
2023-03-30T05:15:23.174Z,23.53
2023-03-30T05:17:49.929Z,24.40
2023-03-30T05:20:17.112Z,28.87
2023-03-30T05:22:43.760Z,24.17
2023-03-30T05:25:10.541Z,26.50
2023-03-30T05:27:37.153Z,24.33
2023-03-30T05:30:04.433Z,24.93
2023-03-30T05:32:31.126Z,28.57
2023-03-30T05:34:57.949Z,30.43
2023-03-30T05:37:24.674Z,26.23
2023-03-30T05:39:51.659Z,26.27
2023-03-30T05:42:18.317Z,24.80
2023-03-30T05:44:44.894Z,24.57
2023-03-30T05:47:11.459Z,23.93
2023-03-30T05:49:38.053Z,30.57
2023-03-30T05:52:04.998Z,20.87
2023-03-30T05:54:32.151Z,18.97
2023-03-30T05:56:58.908Z,22.20
2023-03-30T05:59:25.747Z,20.53
2023-03-30T06:01:52.280Z,21.53
2023-03-30T06:04:19.169Z,22.60
2023-03-30T06:06:46.102Z,22.73
2023-03-30T06:09:12.696Z,22.53
2023-03-30T06:11:39.294Z,19.70
2023-03-30T06:14:06.046Z,21.30
2023-03-30T06:16:32.992Z,29.00
2023-03-30T06:18:59.677Z,25.83
2023-03-30T06:21:26.344Z,27.60
2023-03-30T06:23:52.916Z,24.10
2023-03-30T06:26:19.998Z,28.90
2023-03-30T06:28:46.676Z,27.47
2023-03-30T06:31:13.234Z,25.13
2023-03-30T06:33:41.780Z,26.43
2023-03-30T06:36:11.745Z,26.30
2023-03-30T06:38:38.821Z,23.00
2023-03-30T06:41:08.479Z,21.57
2023-03-30T06:43:35.126Z,23.23
2023-03-30T06:46:01.745Z,27.17
2023-03-30T06:48:28.491Z,22.50
2023-03-30T06:50:55.201Z,23.03
2023-03-30T06:53:23.177Z,21.70
2023-03-30T06:55:55.100Z,21.07
2023-03-30T06:58:22.141Z,25.10
2023-03-30T07:00:48.987Z,23.83
2023-03-30T07:03:19.306Z,26.00
2023-03-30T07:05:52.571Z,18.53
2023-03-30T07:08:20.100Z,20.40
2023-03-30T07:10:48.150Z,15.93
2023-03-30T07:13:16.717Z,23.57
2023-03-30T07:15:43.468Z,16.87
2023-03-30T07:18:10.216Z,19.70
2023-03-30T07:20:37.014Z,17.20
2023-03-30T07:23:03.960Z,17.53
2023-03-30T07:25:33.482Z,17.87
2023-03-30T07:28:00.119Z,18.77
2023-03-30T07:30:27.689Z,16.30
2023-03-30T07:32:56.252Z,16.30
2023-03-30T07:35:24.862Z,22.67
2023-03-30T07:37:51.739Z,20.37
2023-03-30T07:40:19.815Z,19.30
2023-03-30T07:42:47.658Z,13.27
2023-03-30T07:45:16.697Z,16.90
2023-03-30T07:47:43.608Z,14.57
2023-03-30T07:50:10.653Z,14.90
2023-03-30T07:52:37.976Z,15.43
2023-03-30T07:55:06.307Z,13.90
2023-03-30T07:57:33.031Z,16.17
2023-03-30T07:59:59.747Z,15.03
2023-03-30T08:02:27.328Z,14.30
2023-03-30T08:04:54.465Z,9.73
2023-03-30T08:07:21.209Z,11.97
2023-03-30T08:09:47.768Z,12.63
2023-03-30T08:12:14.417Z,8.63
2023-03-30T08:14:41.043Z,10.50
2023-03-30T08:17:07.814Z,8.27
2023-03-30T08:19:34.391Z,13.20
2023-03-30T08:22:02.247Z,7.73
2023-03-30T08:24:28.940Z,9.33
2023-03-30T08:26:55.641Z,7.57
2023-03-30T08:29:22.516Z,8.77
2023-03-30T08:31:51.192Z,13.23
2023-03-30T08:34:18.300Z,8.83
2023-03-30T08:36:44.881Z,11.27
2023-03-30T08:39:11.664Z,9.90
2023-03-30T08:42:02.971Z,10.40
2023-03-30T08:44:32.932Z,7.77
2023-03-30T08:47:02.235Z,13.87
2023-03-30T08:49:32.931Z,9.57
2023-03-30T08:52:03.182Z,12.07
2023-03-30T08:54:32.457Z,11.17
2023-03-30T08:57:12.402Z,14.97
2023-03-30T08:59:45.381Z,8.80
2023-03-30T09:02:24.334Z,9.20
2023-03-30T09:05:06.645Z,11.23
2023-03-30T09:07:47.941Z,9.87
2023-03-30T09:10:16.021Z,12.97
2023-03-30T09:12:52.418Z,10.60
2023-03-30T09:15:25.732Z,14.30
2023-03-30T09:17:56.117Z,12.23
2023-03-30T09:20:25.627Z,6.27
2023-03-30T09:22:54.682Z,9.47
2023-03-30T09:25:34.716Z,9.00
2023-03-30T09:28:24.168Z,9.73
2023-03-30T09:31:00.679Z,13.83
2023-03-30T09:33:45.991Z,11.80
2023-03-30T09:36:22.067Z,10.20
2023-03-30T09:38:50.478Z,17.53
2023-03-30T09:41:23.093Z,9.77
2023-03-30T09:43:51.884Z,14.43
2023-03-30T09:46:18.710Z,15.03
2023-03-30T09:48:47.424Z,15.20
2023-03-30T09:51:34.327Z,9.43
2023-03-30T09:54:03.784Z,47.80
2023-03-30T09:56:51.567Z,35.50
2023-03-30T09:59:27.859Z,13.67
2023-03-30T10:02:10.712Z,7.77
2023-03-30T10:05:00.377Z,21.07
2023-03-30T10:07:38.132Z,8.47
2023-03-30T10:10:33.560Z,9.17
2023-03-30T10:13:13.536Z,7.00
2023-03-30T10:15:46.291Z,7.90
2023-03-30T10:18:43.947Z,9.47
2023-03-30T10:21:13.564Z,6.50
2023-03-30T10:23:45.206Z,9.03
2023-03-30T10:26:19.716Z,7.60
2023-03-30T10:28:57.665Z,6.73
2023-03-30T10:31:28.316Z,8.17
2023-03-30T10:33:57.996Z,8.67
2023-03-30T10:36:34.084Z,6.83
2023-03-30T10:39:08.229Z,7.93
2023-03-30T10:41:37.213Z,9.60
2023-03-30T10:44:25.090Z,6.77
2023-03-30T10:47:00.958Z,5.77
2023-03-30T10:49:51.789Z,6.00
2023-03-30T10:52:34.683Z,7.07
2023-03-30T10:55:38.826Z,6.47
2023-03-30T10:58:27.380Z,8.97
2023-03-30T11:01:26.124Z,9.07
2023-03-30T11:04:04.492Z,8.37
2023-03-30T11:06:41.760Z,7.37
2023-03-30T11:09:15.462Z,5.73
2023-03-30T11:11:49.867Z,8.67
2023-03-30T11:14:27.059Z,7.33
2023-03-30T11:17:04.698Z,12.10
2023-03-30T11:19:39.987Z,7.60
2023-03-30T11:22:17.744Z,9.57
2023-03-30T11:24:49.879Z,5.93
2023-03-30T11:27:24.451Z,4.97
2023-03-30T11:30:03.414Z,5.50
2023-03-30T11:32:53.975Z,7.13
2023-03-30T11:35:27.333Z,7.20
2023-03-30T11:38:21.571Z,7.53
2023-03-30T11:40:54.208Z,5.80
2023-03-30T11:43:23.628Z,7.00
2023-03-30T11:46:17.384Z,5.07
2023-03-30T11:49:13.423Z,7.07
2023-03-30T11:51:52.873Z,5.27
2023-03-30T11:54:29.021Z,6.47
2023-03-30T11:57:11.374Z,5.40
2023-03-30T12:00:08.448Z,6.03
2023-03-30T12:03:23.047Z,8.40
2023-03-30T12:06:17.308Z,8.00
2023-03-30T12:08:57.606Z,6.27
2023-03-30T12:11:44.756Z,6.27
2023-03-30T12:14:34.588Z,8.07
2023-03-30T12:17:39.308Z,10.07
2023-03-30T12:20:29.806Z,8.20
2023-03-30T12:23:06.557Z,8.33
2023-03-30T12:25:41.150Z,8.77
2023-03-30T12:28:18.056Z,7.03
2023-03-30T12:30:55.473Z,20.50
2023-03-30T12:33:34.594Z,12.03
2023-03-30T12:36:04.223Z,16.97
2023-03-30T12:38:58.212Z,10.20
2023-03-30T12:41:27.470Z,19.80
2023-03-30T12:44:32.622Z,17.23
2023-03-30T12:47:18.574Z,13.27
2023-03-30T12:50:04.221Z,18.40
2023-03-30T12:52:58.007Z,16.03
2023-03-30T12:55:27.586Z,17.17
2023-03-30T12:58:00.165Z,23.87
2023-03-30T13:00:51.214Z,14.40
2023-03-30T13:03:53.371Z,16.77
2023-03-30T13:06:31.744Z,15.27
2023-03-30T13:09:31.808Z,16.07
2023-03-30T13:11:58.345Z,24.10
2023-03-30T13:14:31.200Z,14.87
2023-03-30T13:17:01.035Z,12.87
2023-03-30T13:19:33.794Z,14.43
2023-03-30T13:22:12.901Z,14.77
2023-03-30T13:24:42.920Z,15.47
2023-03-30T13:27:18.438Z,17.83
2023-03-30T13:30:09.380Z,10.77
2023-03-30T13:32:38.743Z,52.33
2023-03-30T13:35:14.186Z,14.87
2023-03-30T13:38:19.967Z,18.63
2023-03-30T13:41:04.452Z,13.03
2023-03-30T13:43:54.000Z,12.87
2023-03-30T13:46:35.638Z,12.57
2023-03-30T13:49:17.317Z,12.33
2023-03-30T13:51:45.500Z,12.73
2023-03-30T13:54:17.881Z,9.27
2023-03-30T13:56:49.782Z,9.43
2023-03-30T13:59:20.116Z,12.43
2023-03-30T14:01:53.078Z,8.90
2023-03-30T14:04:19.939Z,11.33
2023-03-30T14:06:50.508Z,11.23
2023-03-30T14:09:27.854Z,9.97
2023-03-30T14:12:04.709Z,10.13
2023-03-30T14:14:37.509Z,9.67
2023-03-30T14:17:18.424Z,7.27
2023-03-30T14:20:26.609Z,9.80
2023-03-30T14:22:56.047Z,7.33
2023-03-30T14:25:33.714Z,6.73
2023-03-30T14:28:12.448Z,8.70
2023-03-30T14:30:39.093Z,8.57
2023-03-30T14:33:11.275Z,9.07
2023-03-30T14:35:43.028Z,7.00
2023-03-30T14:38:34.877Z,18.57
2023-03-30T14:41:01.717Z,8.73
2023-03-30T14:43:31.641Z,7.70
2023-03-30T14:46:02.878Z,5.50
2023-03-30T14:48:36.454Z,11.07
2023-03-30T14:51:07.958Z,6.10
2023-03-30T14:53:35.641Z,6.03
2023-03-30T14:56:03.939Z,7.18
2023-03-30T14:58:32.836Z,10.75
2023-03-30T15:01:09.228Z,7.53
2023-03-30T15:03:37.962Z,6.20
2023-03-30T15:06:07.076Z,8.75
2023-03-30T15:08:37.164Z,8.20
2023-03-30T15:11:15.652Z,8.65
2023-03-30T15:13:47.126Z,5.73
2023-03-30T15:16:20.043Z,9.70
2023-03-30T15:18:46.952Z,7.90
2023-03-30T15:21:14.168Z,10.83
2023-03-30T15:23:45.034Z,14.53
2023-03-30T15:26:12.794Z,10.50
2023-03-30T15:28:58.054Z,9.20
2023-03-30T15:31:28.310Z,9.37
2023-03-30T15:33:57.853Z,7.67
2023-03-30T15:36:29.011Z,11.17
2023-03-30T15:38:58.983Z,11.57
2023-03-30T15:41:48.809Z,10.17
2023-03-30T15:44:20.226Z,6.97
2023-03-30T15:46:49.568Z,7.43
2023-03-30T15:49:19.112Z,16.10
2023-03-30T15:51:55.197Z,9.23
2023-03-30T15:54:25.108Z,8.20
2023-03-30T15:57:13.543Z,7.07
2023-03-30T15:59:53.672Z,13.13
2023-03-30T16:02:35.913Z,8.27
2023-03-30T16:05:04.724Z,8.87
2023-03-30T16:07:31.998Z,5.10
2023-03-30T16:09:58.880Z,8.70
2023-03-30T16:12:28.239Z,10.23
2023-03-30T16:14:56.133Z,9.83
2023-03-30T16:17:23.080Z,10.70
2023-03-30T16:19:49.650Z,11.20
2023-03-30T16:22:16.531Z,12.17
2023-03-30T16:24:43.842Z,13.87
2023-03-30T16:27:12.195Z,13.57
2023-03-30T16:29:39.015Z,15.27
2023-03-30T16:32:05.769Z,14.97
2023-03-30T16:34:32.494Z,12.23
2023-03-30T16:36:59.130Z,11.83
2023-03-30T16:39:28.523Z,13.30
2023-03-30T16:41:56.171Z,19.17
2023-03-30T16:44:24.971Z,10.47
2023-03-30T16:46:52.496Z,14.00
2023-03-30T16:49:22.538Z,13.67
2023-03-30T16:51:49.559Z,18.30
2023-03-30T16:54:29.436Z,15.93
2023-03-30T16:56:58.845Z,15.40
2023-03-30T16:59:29.209Z,15.00
2023-03-30T17:01:56.328Z,15.23
2023-03-30T17:04:23.055Z,15.93
2023-03-30T17:06:49.700Z,15.67
2023-03-30T17:09:18.997Z,16.67
2023-03-30T17:11:47.440Z,16.70
2023-03-30T17:14:15.016Z,21.33
2023-03-30T17:16:42.499Z,20.10
2023-03-30T17:19:13.806Z,19.27
2023-03-30T17:21:43.101Z,15.70
2023-03-30T17:24:15.309Z,16.17
2023-03-30T17:26:42.220Z,17.20
2023-03-30T17:29:09.917Z,18.67
2023-03-30T17:31:38.478Z,16.07
2023-03-30T17:34:06.876Z,16.23
2023-03-30T17:36:33.649Z,21.20
2023-03-30T17:39:04.802Z,17.37
2023-03-30T17:41:33.817Z,18.80
2023-03-30T17:44:00.414Z,21.00
2023-03-30T17:46:27.577Z,14.20
2023-03-30T17:48:54.405Z,16.13
2023-03-30T17:51:21.262Z,16.77
2023-03-30T17:53:48.005Z,23.30
2023-03-30T17:56:14.678Z,19.10
2023-03-30T17:58:41.321Z,17.17
2023-03-30T18:01:09.552Z,22.17
2023-03-30T18:03:38.634Z,13.77
2023-03-30T18:06:06.066Z,17.47
2023-03-30T18:08:32.847Z,19.50
2023-03-30T18:11:00.995Z,12.17
2023-03-30T18:13:29.567Z,16.77
2023-03-30T18:15:58.628Z,17.60
2023-03-30T18:18:28.042Z,13.77
2023-03-30T18:21:02.857Z,39.20
2023-03-30T18:23:34.580Z,20.80
2023-03-30T18:26:02.117Z,14.17
2023-03-30T18:28:29.296Z,22.13
2023-03-30T18:30:57.692Z,20.47
2023-03-30T18:33:25.228Z,15.20
2023-03-30T18:35:53.371Z,17.23
2023-03-30T18:38:21.836Z,19.93
2023-03-30T18:40:57.745Z,19.30
2023-03-30T18:43:26.609Z,20.60
2023-03-30T18:45:54.595Z,23.60
2023-03-30T18:48:21.762Z,24.10
2023-03-30T18:50:54.883Z,23.73
2023-03-30T18:53:26.646Z,19.20
2023-03-30T18:55:57.149Z,13.20
2023-03-30T18:58:26.554Z,19.53
2023-03-30T19:00:54.472Z,19.20
2023-03-30T19:03:22.624Z,18.90
2023-03-30T19:05:50.597Z,23.67
2023-03-30T19:08:19.949Z,23.50
2023-03-30T19:10:50.030Z,21.07
2023-03-30T19:13:19.039Z,19.67
2023-03-30T19:15:46.899Z,20.33
2023-03-30T19:18:14.501Z,19.27
2023-03-30T19:20:42.158Z,21.30
2023-03-30T19:23:12.915Z,23.63
2023-03-30T19:25:40.492Z,18.37
2023-03-30T19:28:08.124Z,24.77
2023-03-30T19:30:39.266Z,19.50
2023-03-30T19:33:09.434Z,21.07
2023-03-30T19:35:36.171Z,17.50
2023-03-30T19:38:03.262Z,24.87
2023-03-30T19:40:29.907Z,22.23
2023-03-30T19:42:56.518Z,21.50
2023-03-30T19:45:23.991Z,20.30
2023-03-30T19:47:51.690Z,17.97
2023-03-30T19:50:20.309Z,24.97
2023-03-30T19:52:50.151Z,17.87
2023-03-30T19:55:20.618Z,17.47
2023-03-30T19:57:47.396Z,28.13
2023-03-30T20:00:17.239Z,22.63
2023-03-30T20:02:50.154Z,24.70
2023-03-30T20:05:18.043Z,25.07
2023-03-30T20:07:46.200Z,23.30
2023-03-30T20:10:16.786Z,19.30
2023-03-30T20:12:43.617Z,25.90
2023-03-30T20:15:11.400Z,22.43
2023-03-30T20:17:39.599Z,31.30
2023-03-30T20:20:09.342Z,23.70
2023-03-30T20:22:37.271Z,20.43
2023-03-30T20:25:06.661Z,22.77
2023-03-30T20:27:33.952Z,16.00
2023-03-30T20:30:01.319Z,20.50
2023-03-30T20:32:28.074Z,24.63
2023-03-30T20:34:54.808Z,19.87
2023-03-30T20:37:21.508Z,18.40
2023-03-30T20:39:50.107Z,23.30
2023-03-30T20:42:18.349Z,22.00
2023-03-30T20:44:50.378Z,15.83
2023-03-30T20:47:18.044Z,17.27
2023-03-30T20:49:46.402Z,23.70
2023-03-30T20:52:13.311Z,26.63
2023-03-30T20:54:41.341Z,25.93
2023-03-30T20:57:08.126Z,25.57
2023-03-30T20:59:34.885Z,26.83
2023-03-30T21:02:01.814Z,29.40
2023-03-30T21:04:28.945Z,28.40
2023-03-30T21:06:56.044Z,22.87
2023-03-30T21:09:22.721Z,33.33
2023-03-30T21:11:49.410Z,25.67
2023-03-30T21:14:16.082Z,22.50
2023-03-30T21:16:42.898Z,32.10
2023-03-30T21:19:11.300Z,28.83
2023-03-30T21:21:38.244Z,38.93
2023-03-30T21:24:06.775Z,34.20
2023-03-30T21:26:33.749Z,35.40
2023-03-30T21:29:00.627Z,30.90
2023-03-30T21:31:27.456Z,41.50
2023-03-30T21:33:54.327Z,28.40
2023-03-30T21:36:21.097Z,37.47
2023-03-30T21:38:48.748Z,40.60
2023-03-30T21:41:18.075Z,45.83
2023-03-30T21:43:47.479Z,50.67
2023-03-30T21:46:22.735Z,39.50
2023-03-30T21:48:53.777Z,37.27
2023-03-30T21:51:24.445Z,47.63
2023-03-30T21:53:53.275Z,45.93
2023-03-30T21:56:22.521Z,45.30
2023-03-30T21:58:49.571Z,52.83
2023-03-30T22:01:17.166Z,36.23
2023-03-30T22:03:45.855Z,43.73
2023-03-30T22:06:14.558Z,45.83
2023-03-30T22:08:41.809Z,40.73
2023-03-30T22:11:15.172Z,41.93
2023-03-30T22:13:42.189Z,51.10
2023-03-30T22:16:16.455Z,43.33
2023-03-30T22:18:44.116Z,48.97
2023-03-30T22:21:17.170Z,41.73
2023-03-30T22:23:44.254Z,37.47
2023-03-30T22:26:12.081Z,37.53
2023-03-30T22:28:39.143Z,41.63
2023-03-30T22:31:11.000Z,36.73
2023-03-30T22:33:38.064Z,41.07
2023-03-30T22:36:07.602Z,40.30
2023-03-30T22:38:34.578Z,47.23
2023-03-30T22:41:06.513Z,51.67
2023-03-30T22:43:33.813Z,57.13
2023-03-30T22:46:00.486Z,51.63
2023-03-30T22:48:27.126Z,47.53
2023-03-30T22:50:53.700Z,67.10
2023-03-30T22:53:20.304Z,58.93
2023-03-30T22:55:48.087Z,64.70
2023-03-30T22:58:15.481Z,49.30
2023-03-30T23:00:42.287Z,50.90
2023-03-30T23:03:09.032Z,54.43
2023-03-30T23:05:35.743Z,49.07
2023-03-30T23:08:02.493Z,58.97
2023-03-30T23:10:33.876Z,52.13
2023-03-30T23:13:00.665Z,53.13
2023-03-30T23:15:29.364Z,58.70
2023-03-30T23:17:56.665Z,48.67
2023-03-30T23:20:23.344Z,54.37
2023-03-30T23:22:50.919Z,58.97
2023-03-30T23:25:17.774Z,50.73
2023-03-30T23:27:44.407Z,42.67
2023-03-30T23:30:11.842Z,46.17
2023-03-30T23:32:38.616Z,44.70
2023-03-30T23:35:05.597Z,52.63
2023-03-30T23:37:32.611Z,43.07
2023-03-30T23:40:01.794Z,56.07
2023-03-30T23:42:28.946Z,45.00
2023-03-30T23:44:55.992Z,55.23
2023-03-30T23:47:22.662Z,44.13
2023-03-30T23:49:49.325Z,52.70
2023-03-30T23:52:16.092Z,52.77
2023-03-30T23:54:42.735Z,36.50
2023-03-30T23:57:09.847Z,59.87
2023-03-30T23:59:37.293Z,46.07
